sensor_id;sensor_type;location;lat;lon;timestamp;pressure;altitude;pressure_sealevel;temperature;humidity
78888;BME280;68276;49.326;8.690;2023-09-30T00:01:45;101137.19;;;16.32;100.00
78888;BME280;68276;49.326;8.690;2023-09-30T00:04:10;101139.69;;;16.27;100.00
78888;BME280;68276;49.326;8.690;2023-09-30T00:06:36;101147.59;;;16.22;100.00
78888;BME280;68276;49.326;8.690;2023-09-30T00:09:01;101137.53;;;16.16;100.00
78888;BME280;68276;49.326;8.690;2023-09-30T00:11:27;101139.59;;;16.08;100.00
78888;BME280;68276;49.326;8.690;2023-09-30T00:13:53;101141.66;;;16.05;100.00
78888;BME280;68276;49.326;8.690;2023-09-30T00:16:18;101145.81;;;16.01;100.00
78888;BME280;68276;49.326;8.690;2023-09-30T00:18:44;101153.75;;;16.03;100.00
78888;BME280;68276;49.326;8.690;2023-09-30T00:21:10;101158.53;;;16.01;100.00
78888;BME280;68276;49.326;8.690;2023-09-30T00:23:35;101157.69;;;16.00;100.00
78888;BME280;68276;49.326;8.690;2023-09-30T00:26:01;101165.22;;;16.05;100.00
78888;BME280;68276;49.326;8.690;2023-09-30T00:28:26;101164.41;;;16.11;100.00
78888;BME280;68276;49.326;8.690;2023-09-30T00:30:52;101171.50;;;16.12;100.00
78888;BME280;68276;49.326;8.690;2023-09-30T00:33:17;101170.44;;;16.07;100.00
78888;BME280;68276;49.326;8.690;2023-09-30T00:35:42;101179.81;;;16.04;100.00
78888;BME280;68276;49.326;8.690;2023-09-30T00:38:08;101181.06;;;16.01;100.00
78888;BME280;68276;49.326;8.690;2023-09-30T00:40:34;101173.91;;;15.94;100.00
78888;BME280;68276;49.326;8.690;2023-09-30T00:43:00;101181.41;;;15.92;100.00
78888;BME280;68276;49.326;8.690;2023-09-30T00:45:26;101186.41;;;15.95;100.00
78888;BME280;68276;49.326;8.690;2023-09-30T00:47:53;101183.47;;;15.90;100.00
78888;BME280;68276;49.326;8.690;2023-09-30T00:50:19;101189.53;;;15.92;100.00
78888;BME280;68276;49.326;8.690;2023-09-30T00:52:47;101196.19;;;15.89;100.00
78888;BME280;68276;49.326;8.690;2023-09-30T00:55:14;101191.19;;;15.93;100.00
78888;BME280;68276;49.326;8.690;2023-09-30T00:57:40;101180.41;;;15.99;100.00
78888;BME280;68276;49.326;8.690;2023-09-30T01:00:07;101173.38;;;16.05;100.00
78888;BME280;68276;49.326;8.690;2023-09-30T01:02:33;101178.16;;;16.03;100.00
78888;BME280;68276;49.326;8.690;2023-09-30T01:05:01;101185.47;;;16.09;100.00
78888;BME280;68276;49.326;8.690;2023-09-30T01:07:26;101187.94;;;16.04;100.00
78888;BME280;68276;49.326;8.690;2023-09-30T01:09:51;101192.13;;;16.07;100.00
78888;BME280;68276;49.326;8.690;2023-09-30T01:12:17;101184.00;;;16.07;100.00
78888;BME280;68276;49.326;8.690;2023-09-30T01:14:42;101181.72;;;16.10;100.00
78888;BME280;68276;49.326;8.690;2023-09-30T01:17:08;101176.69;;;16.07;100.00
78888;BME280;68276;49.326;8.690;2023-09-30T01:19:39;101175.03;;;16.06;100.00
78888;BME280;68276;49.326;8.690;2023-09-30T01:22:04;101173.75;;;16.02;100.00
78888;BME280;68276;49.326;8.690;2023-09-30T01:24:30;101175.00;;;15.99;100.00
78888;BME280;68276;49.326;8.690;2023-09-30T01:26:56;101174.94;;;15.93;100.00
78888;BME280;68276;49.326;8.690;2023-09-30T01:29:21;101175.00;;;15.99;100.00
78888;BME280;68276;49.326;8.690;2023-09-30T01:31:48;101182.28;;;15.99;100.00
78888;BME280;68276;49.326;8.690;2023-09-30T01:34:14;101177.50;;;16.01;100.00
78888;BME280;68276;49.326;8.690;2023-09-30T01:36:43;101177.06;;;15.97;100.00
78888;BME280;68276;49.326;8.690;2023-09-30T01:39:11;101182.03;;;15.94;100.00
78888;BME280;68276;49.326;8.690;2023-09-30T01:41:37;101180.75;;;15.90;100.00
78888;BME280;68276;49.326;8.690;2023-09-30T01:44:03;101186.78;;;15.85;100.00
78888;BME280;68276;49.326;8.690;2023-09-30T01:46:28;101183.66;;;15.88;100.00
78888;BME280;68276;49.326;8.690;2023-09-30T01:48:53;101179.50;;;15.86;100.00
78888;BME280;68276;49.326;8.690;2023-09-30T01:51:19;101189.28;;;15.87;100.00
78888;BME280;68276;49.326;8.690;2023-09-30T01:53:44;101188.66;;;15.85;100.00
78888;BME280;68276;49.326;8.690;2023-09-30T01:56:09;101185.69;;;15.80;100.00
78888;BME280;68276;49.326;8.690;2023-09-30T01:58:35;101200.75;;;15.82;100.00
78888;BME280;68276;49.326;8.690;2023-09-30T02:01:02;101214.31;;;15.89;100.00
78888;BME280;68276;49.326;8.690;2023-09-30T02:03:28;101215.41;;;15.94;100.00
78888;BME280;68276;49.326;8.690;2023-09-30T02:05:54;101210.00;;;15.94;100.00
78888;BME280;68276;49.326;8.690;2023-09-30T02:08:19;101194.47;;;15.82;100.00
78888;BME280;68276;49.326;8.690;2023-09-30T02:10:45;101201.06;;;15.73;100.00
78888;BME280;68276;49.326;8.690;2023-09-30T02:13:10;101190.78;;;15.62;100.00
78888;BME280;68276;49.326;8.690;2023-09-30T02:15:39;101191.31;;;15.51;100.00
78888;BME280;68276;49.326;8.690;2023-09-30T02:18:06;101196.75;;;15.51;100.00
78888;BME280;68276;49.326;8.690;2023-09-30T02:20:31;101201.50;;;15.49;100.00
78888;BME280;68276;49.326;8.690;2023-09-30T02:22:57;101208.22;;;15.53;100.00
78888;BME280;68276;49.326;8.690;2023-09-30T02:25:24;101204.88;;;15.51;100.00
78888;BME280;68276;49.326;8.690;2023-09-30T02:27:50;101204.03;;;15.50;100.00
78888;BME280;68276;49.326;8.690;2023-09-30T02:30:15;101208.88;;;15.55;100.00
78888;BME280;68276;49.326;8.690;2023-09-30T02:32:41;101208.47;;;15.58;100.00
78888;BME280;68276;49.326;8.690;2023-09-30T02:35:08;101206.28;;;15.47;100.00
78888;BME280;68276;49.326;8.690;2023-09-30T02:37:34;101208.75;;;15.42;100.00
78888;BME280;68276;49.326;8.690;2023-09-30T02:40:06;101208.66;;;15.35;100.00
78888;BME280;68276;49.326;8.690;2023-09-30T02:42:38;101205.91;;;15.29;100.00
78888;BME280;68276;49.326;8.690;2023-09-30T02:45:05;101212.34;;;15.28;100.00
78888;BME280;68276;49.326;8.690;2023-09-30T02:47:31;101207.13;;;15.26;100.00
78888;BME280;68276;49.326;8.690;2023-09-30T02:49:57;101218.16;;;15.25;100.00
78888;BME280;68276;49.326;8.690;2023-09-30T02:52:26;101231.28;;;15.07;100.00
78888;BME280;68276;49.326;8.690;2023-09-30T02:54:52;101236.31;;;15.10;100.00
78888;BME280;68276;49.326;8.690;2023-09-30T02:57:17;101215.63;;;15.02;100.00
78888;BME280;68276;49.326;8.690;2023-09-30T02:59:43;101217.69;;;15.00;100.00
78888;BME280;68276;49.326;8.690;2023-09-30T03:02:09;101222.91;;;15.02;100.00
78888;BME280;68276;49.326;8.690;2023-09-30T03:04:36;101225.75;;;14.93;100.00
78888;BME280;68276;49.326;8.690;2023-09-30T03:07:02;101221.94;;;14.88;100.00
78888;BME280;68276;49.326;8.690;2023-09-30T03:09:27;101229.91;;;14.96;100.00
78888;BME280;68276;49.326;8.690;2023-09-30T03:11:52;101237.00;;;14.97;100.00
78888;BME280;68276;49.326;8.690;2023-09-30T03:14:21;101249.13;;;15.01;100.00
78888;BME280;68276;49.326;8.690;2023-09-30T03:16:47;101247.44;;;15.00;100.00
78888;BME280;68276;49.326;8.690;2023-09-30T03:19:13;101245.59;;;15.01;100.00
78888;BME280;68276;49.326;8.690;2023-09-30T03:21:41;101243.28;;;14.98;100.00
78888;BME280;68276;49.326;8.690;2023-09-30T03:24:07;101239.25;;;14.93;100.00
78888;BME280;68276;49.326;8.690;2023-09-30T03:26:33;101228.19;;;14.88;100.00
78888;BME280;68276;49.326;8.690;2023-09-30T03:28:59;101229.59;;;14.84;100.00
78888;BME280;68276;49.326;8.690;2023-09-30T03:31:24;101223.44;;;14.90;100.00
78888;BME280;68276;49.326;8.690;2023-09-30T03:33:50;101219.69;;;14.91;100.00
78888;BME280;68276;49.326;8.690;2023-09-30T03:36:21;101210.53;;;14.93;100.00
78888;BME280;68276;49.326;8.690;2023-09-30T03:38:50;101199.88;;;14.91;100.00
78888;BME280;68276;49.326;8.690;2023-09-30T03:41:19;101215.03;;;14.85;100.00
78888;BME280;68276;49.326;8.690;2023-09-30T03:43:44;101217.38;;;14.88;100.00
78888;BME280;68276;49.326;8.690;2023-09-30T03:46:10;101231.53;;;14.90;100.00
78888;BME280;68276;49.326;8.690;2023-09-30T03:48:37;101225.28;;;14.90;100.00
78888;BME280;68276;49.326;8.690;2023-09-30T03:51:11;101228.00;;;14.90;100.00
78888;BME280;68276;49.326;8.690;2023-09-30T03:53:41;101232.75;;;14.88;100.00
78888;BME280;68276;49.326;8.690;2023-09-30T03:56:06;101243.56;;;14.88;100.00
78888;BME280;68276;49.326;8.690;2023-09-30T03:58:32;101244.81;;;14.85;100.00
78888;BME280;68276;49.326;8.690;2023-09-30T04:00:58;101245.47;;;14.73;100.00
78888;BME280;68276;49.326;8.690;2023-09-30T04:03:23;101248.38;;;14.71;100.00
78888;BME280;68276;49.326;8.690;2023-09-30T04:05:57;101246.81;;;14.62;100.00
78888;BME280;68276;49.326;8.690;2023-09-30T04:08:23;101243.66;;;14.59;100.00
78888;BME280;68276;49.326;8.690;2023-09-30T04:10:48;101241.88;;;14.51;100.00
78888;BME280;68276;49.326;8.690;2023-09-30T04:13:14;101239.63;;;14.55;100.00
78888;BME280;68276;49.326;8.690;2023-09-30T04:15:40;101247.56;;;14.56;100.00
78888;BME280;68276;49.326;8.690;2023-09-30T04:18:05;101260.06;;;14.57;100.00
78888;BME280;68276;49.326;8.690;2023-09-30T04:20:31;101262.75;;;14.57;100.00
78888;BME280;68276;49.326;8.690;2023-09-30T04:22:57;101264.81;;;14.55;100.00
78888;BME280;68276;49.326;8.690;2023-09-30T04:25:23;101253.06;;;14.48;100.00
78888;BME280;68276;49.326;8.690;2023-09-30T04:27:49;101256.81;;;14.47;100.00
78888;BME280;68276;49.326;8.690;2023-09-30T04:30:15;101260.53;;;14.46;100.00
78888;BME280;68276;49.326;8.690;2023-09-30T04:32:40;101271.16;;;14.48;100.00
78888;BME280;68276;49.326;8.690;2023-09-30T04:35:06;101268.91;;;14.51;100.00
78888;BME280;68276;49.326;8.690;2023-09-30T04:37:36;101276.75;;;14.46;100.00
78888;BME280;68276;49.326;8.690;2023-09-30T04:40:06;101275.81;;;14.39;100.00
78888;BME280;68276;49.326;8.690;2023-09-30T04:42:45;101268.56;;;14.40;100.00
78888;BME280;68276;49.326;8.690;2023-09-30T04:45:14;101275.81;;;14.39;100.00
78888;BME280;68276;49.326;8.690;2023-09-30T04:47:45;101273.03;;;14.33;100.00
78888;BME280;68276;49.326;8.690;2023-09-30T04:50:11;101273.59;;;14.28;100.00
78888;BME280;68276;49.326;8.690;2023-09-30T04:52:38;101279.31;;;14.25;100.00
78888;BME280;68276;49.326;8.690;2023-09-30T04:55:05;101265.19;;;14.23;100.00
78888;BME280;68276;49.326;8.690;2023-09-30T04:57:31;101261.81;;;14.21;100.00
78888;BME280;68276;49.326;8.690;2023-09-30T04:59:57;101269.09;;;14.21;100.00
78888;BME280;68276;49.326;8.690;2023-09-30T05:02:23;101285.50;;;14.19;100.00
78888;BME280;68276;49.326;8.690;2023-09-30T05:04:49;101280.00;;;14.13;100.00
78888;BME280;68276;49.326;8.690;2023-09-30T05:07:14;101280.00;;;14.13;100.00
78888;BME280;68276;49.326;8.690;2023-09-30T05:09:40;101278.13;;;13.99;100.00
78888;BME280;68276;49.326;8.690;2023-09-30T05:12:06;101278.66;;;13.94;100.00
78888;BME280;68276;49.326;8.690;2023-09-30T05:14:31;101279.03;;;13.91;100.00
78888;BME280;68276;49.326;8.690;2023-09-30T05:16:58;101265.97;;;13.95;100.00
78888;BME280;68276;49.326;8.690;2023-09-30T05:19:23;101267.22;;;13.92;100.00
78888;BME280;68276;49.326;8.690;2023-09-30T05:21:49;101274.66;;;13.90;100.00
78888;BME280;68276;49.326;8.690;2023-09-30T05:24:15;101276.31;;;13.91;100.00
78888;BME280;68276;49.326;8.690;2023-09-30T05:26:44;101280.06;;;13.90;100.00
78888;BME280;68276;49.326;8.690;2023-09-30T05:29:10;101287.78;;;13.93;100.00
78888;BME280;68276;49.326;8.690;2023-09-30T05:31:35;101293.44;;;13.83;100.00
78888;BME280;68276;49.326;8.690;2023-09-30T05:34:01;101303.41;;;13.83;100.00
78888;BME280;68276;49.326;8.690;2023-09-30T05:36:27;101299.41;;;13.79;100.00
78888;BME280;68276;49.326;8.690;2023-09-30T05:38:52;101284.50;;;13.83;100.00
78888;BME280;68276;49.326;8.690;2023-09-30T05:41:20;101289.25;;;13.81;100.00
78888;BME280;68276;49.326;8.690;2023-09-30T05:43:46;101312.19;;;13.85;100.00
78888;BME280;68276;49.326;8.690;2023-09-30T05:46:11;101316.19;;;13.89;100.00
78888;BME280;68276;49.326;8.690;2023-09-30T05:48:36;101317.31;;;13.95;100.00
78888;BME280;68276;49.326;8.690;2023-09-30T05:51:04;101317.97;;;13.97;100.00
78888;BME280;68276;49.326;8.690;2023-09-30T05:53:29;101329.91;;;14.02;100.00
78888;BME280;68276;49.326;8.690;2023-09-30T05:55:57;101330.19;;;14.07;100.00
78888;BME280;68276;49.326;8.690;2023-09-30T05:58:25;101325.66;;;14.08;100.00
78888;BME280;68276;49.326;8.690;2023-09-30T06:00:52;101321.44;;;14.05;100.00
78888;BME280;68276;49.326;8.690;2023-09-30T06:03:17;101314.28;;;14.12;100.00
78888;BME280;68276;49.326;8.690;2023-09-30T06:05:42;101308.69;;;14.14;100.00
78888;BME280;68276;49.326;8.690;2023-09-30T06:08:09;101315.41;;;14.18;100.00
78888;BME280;68276;49.326;8.690;2023-09-30T06:10:42;101313.84;;;14.23;100.00
78888;BME280;68276;49.326;8.690;2023-09-30T06:13:11;101309.75;;;14.27;100.00
78888;BME280;68276;49.326;8.690;2023-09-30T06:15:41;101320.19;;;14.30;100.00
78888;BME280;68276;49.326;8.690;2023-09-30T06:18:07;101319.06;;;14.39;100.00
78888;BME280;68276;49.326;8.690;2023-09-30T06:20:33;101319.06;;;14.39;100.00
78888;BME280;68276;49.326;8.690;2023-09-30T06:22:59;101316.66;;;14.44;100.00
78888;BME280;68276;49.326;8.690;2023-09-30T06:25:26;101308.47;;;14.52;100.00
78888;BME280;68276;49.326;8.690;2023-09-30T06:27:53;101312.44;;;14.56;100.00
78888;BME280;68276;49.326;8.690;2023-09-30T06:30:20;101320.47;;;14.64;100.00
78888;BME280;68276;49.326;8.690;2023-09-30T06:32:46;101324.94;;;14.72;100.00
78888;BME280;68276;49.326;8.690;2023-09-30T06:35:12;101318.59;;;14.79;100.00
78888;BME280;68276;49.326;8.690;2023-09-30T06:37:41;101323.88;;;14.87;100.00
78888;BME280;68276;49.326;8.690;2023-09-30T06:40:08;101320.81;;;14.90;100.00
78888;BME280;68276;49.326;8.690;2023-09-30T06:42:34;101323.34;;;14.92;100.00
78888;BME280;68276;49.326;8.690;2023-09-30T06:45:05;101319.84;;;14.98;100.00
78888;BME280;68276;49.326;8.690;2023-09-30T06:47:35;101327.63;;;15.01;100.00
78888;BME280;68276;49.326;8.690;2023-09-30T06:50:02;101327.78;;;15.00;100.00
78888;BME280;68276;49.326;8.690;2023-09-30T06:52:34;101326.38;;;15.04;100.00
78888;BME280;68276;49.326;8.690;2023-09-30T06:55:01;101336.19;;;15.05;100.00
78888;BME280;68276;49.326;8.690;2023-09-30T06:57:26;101343.72;;;15.09;100.00
78888;BME280;68276;49.326;8.690;2023-09-30T06:59:51;101346.72;;;15.00;100.00
78888;BME280;68276;49.326;8.690;2023-09-30T07:02:17;101353.66;;;14.87;100.00
78888;BME280;68276;49.326;8.690;2023-09-30T07:04:42;101357.28;;;14.94;100.00
78888;BME280;68276;49.326;8.690;2023-09-30T07:07:07;101358.66;;;15.05;100.00
78888;BME280;68276;49.326;8.690;2023-09-30T07:09:33;101354.09;;;15.06;100.00
78888;BME280;68276;49.326;8.690;2023-09-30T07:11:58;101342.88;;;15.09;100.00
78888;BME280;68276;49.326;8.690;2023-09-30T07:14:23;101340.53;;;15.20;100.00
78888;BME280;68276;49.326;8.690;2023-09-30T07:16:49;101342.66;;;15.25;100.00
78888;BME280;68276;49.326;8.690;2023-09-30T07:19:14;101355.06;;;15.34;100.00
78888;BME280;68276;49.326;8.690;2023-09-30T07:21:39;101357.09;;;15.46;100.00
78888;BME280;68276;49.326;8.690;2023-09-30T07:24:05;101360.72;;;15.53;100.00
78888;BME280;68276;49.326;8.690;2023-09-30T07:26:31;101362.59;;;15.53;100.00
78888;BME280;68276;49.326;8.690;2023-09-30T07:28:56;101389.09;;;15.57;100.00
78888;BME280;68276;49.326;8.690;2023-09-30T07:31:23;101379.38;;;15.63;100.00
78888;BME280;68276;49.326;8.690;2023-09-30T07:33:48;101373.09;;;15.62;100.00
78888;BME280;68276;49.326;8.690;2023-09-30T07:36:14;101391.88;;;15.64;100.00
78888;BME280;68276;49.326;8.690;2023-09-30T07:38:40;101388.66;;;15.75;100.00
78888;BME280;68276;49.326;8.690;2023-09-30T07:41:06;101386.09;;;15.67;100.00
78888;BME280;68276;49.326;8.690;2023-09-30T07:43:31;101378.72;;;15.82;100.00
78888;BME280;68276;49.326;8.690;2023-09-30T07:45:56;101365.69;;;15.92;100.00
78888;BME280;68276;49.326;8.690;2023-09-30T07:48:22;101372.00;;;15.99;100.00
78888;BME280;68276;49.326;8.690;2023-09-30T07:50:47;101366.31;;;16.15;100.00
78888;BME280;68276;49.326;8.690;2023-09-30T07:53:13;101374.81;;;16.12;100.00
78888;BME280;68276;49.326;8.690;2023-09-30T07:55:38;101378.13;;;16.08;100.00
78888;BME280;68276;49.326;8.690;2023-09-30T07:58:04;101382.88;;;16.27;100.00
78888;BME280;68276;49.326;8.690;2023-09-30T08:00:30;101387.69;;;16.31;100.00
78888;BME280;68276;49.326;8.690;2023-09-30T08:02:55;101384.81;;;16.33;100.00
78888;BME280;68276;49.326;8.690;2023-09-30T08:05:20;101379.63;;;16.38;100.00
78888;BME280;68276;49.326;8.690;2023-09-30T08:07:46;101389.75;;;16.50;100.00
78888;BME280;68276;49.326;8.690;2023-09-30T08:10:11;101380.88;;;16.42;100.00
78888;BME280;68276;49.326;8.690;2023-09-30T08:12:42;101383.97;;;16.60;100.00
78888;BME280;68276;49.326;8.690;2023-09-30T08:15:07;101383.28;;;16.51;100.00
78888;BME280;68276;49.326;8.690;2023-09-30T08:17:33;101369.16;;;16.62;100.00
78888;BME280;68276;49.326;8.690;2023-09-30T08:19:59;101372.00;;;16.48;100.00
78888;BME280;68276;49.326;8.690;2023-09-30T08:22:24;101380.88;;;16.69;100.00
78888;BME280;68276;49.326;8.690;2023-09-30T08:24:54;101385.53;;;16.75;100.00
78888;BME280;68276;49.326;8.690;2023-09-30T08:27:19;101390.09;;;16.68;100.00
78888;BME280;68276;49.326;8.690;2023-09-30T08:29:45;101378.34;;;16.61;100.00
78888;BME280;68276;49.326;8.690;2023-09-30T08:32:11;101390.28;;;16.67;100.00
78888;BME280;68276;49.326;8.690;2023-09-30T08:34:36;101387.06;;;16.84;100.00
78888;BME280;68276;49.326;8.690;2023-09-30T08:37:01;101366.78;;;16.87;100.00
78888;BME280;68276;49.326;8.690;2023-09-30T08:39:27;101367.91;;;16.99;100.00
78888;BME280;68276;49.326;8.690;2023-09-30T08:41:55;101388.22;;;17.16;100.00
78888;BME280;68276;49.326;8.690;2023-09-30T08:44:21;101384.72;;;17.22;100.00
78888;BME280;68276;49.326;8.690;2023-09-30T08:46:46;101386.59;;;17.22;100.00
78888;BME280;68276;49.326;8.690;2023-09-30T08:49:13;101395.59;;;17.29;100.00
78888;BME280;68276;49.326;8.690;2023-09-30T08:51:39;101405.81;;;17.27;100.00
78888;BME280;68276;49.326;8.690;2023-09-30T08:54:05;101405.66;;;17.35;100.00
78888;BME280;68276;49.326;8.690;2023-09-30T08:56:32;101406.66;;;17.68;100.00
78888;BME280;68276;49.326;8.690;2023-09-30T08:58:59;101407.66;;;17.60;100.00
78888;BME280;68276;49.326;8.690;2023-09-30T09:01:27;101398.72;;;17.79;99.05
78888;BME280;68276;49.326;8.690;2023-09-30T09:03:53;101406.28;;;18.03;97.30
78888;BME280;68276;49.326;8.690;2023-09-30T09:06:20;101407.34;;;18.09;93.43
78888;BME280;68276;49.326;8.690;2023-09-30T09:08:46;101405.25;;;18.11;90.76
78888;BME280;68276;49.326;8.690;2023-09-30T09:11:12;101401.91;;;18.35;88.26
78888;BME280;68276;49.326;8.690;2023-09-30T09:13:51;101399.19;;;18.42;88.64
78888;BME280;68276;49.326;8.690;2023-09-30T09:16:21;101402.75;;;18.42;88.12
78888;BME280;68276;49.326;8.690;2023-09-30T09:18:47;101407.56;;;18.53;84.36
78888;BME280;68276;49.326;8.690;2023-09-30T09:21:14;101400.44;;;18.26;87.68
78888;BME280;68276;49.326;8.690;2023-09-30T09:23:44;101395.44;;;18.49;87.32
78888;BME280;68276;49.326;8.690;2023-09-30T09:26:11;101389.53;;;18.78;85.70
78888;BME280;68276;49.326;8.690;2023-09-30T09:28:37;101395.28;;;19.08;83.63
78888;BME280;68276;49.326;8.690;2023-09-30T09:31:21;101401.22;;;18.85;83.56
78888;BME280;68276;49.326;8.690;2023-09-30T09:33:47;101398.91;;;18.89;83.60
78888;BME280;68276;49.326;8.690;2023-09-30T09:36:13;101392.47;;;18.44;87.03
78888;BME280;68276;49.326;8.690;2023-09-30T09:38:53;101396.66;;;18.60;86.42
78888;BME280;68276;49.326;8.690;2023-09-30T09:41:22;101402.09;;;18.66;86.12
78888;BME280;68276;49.326;8.690;2023-09-30T09:43:49;101393.94;;;18.66;85.27
78888;BME280;68276;49.326;8.690;2023-09-30T09:46:16;101399.38;;;18.73;84.38
78888;BME280;68276;49.326;8.690;2023-09-30T09:48:42;101383.63;;;18.81;81.76
78888;BME280;68276;49.326;8.690;2023-09-30T09:51:11;101386.50;;;19.06;80.80
78888;BME280;68276;49.326;8.690;2023-09-30T09:53:39;101383.44;;;18.76;80.14
78888;BME280;68276;49.326;8.690;2023-09-30T09:56:07;101388.22;;;18.94;78.59
78888;BME280;68276;49.326;8.690;2023-09-30T09:58:36;101386.84;;;19.22;77.89
78888;BME280;68276;49.326;8.690;2023-09-30T10:01:05;101381.38;;;19.35;77.24
78888;BME280;68276;49.326;8.690;2023-09-30T10:03:31;101379.78;;;19.59;74.19
78888;BME280;68276;49.326;8.690;2023-09-30T10:05:57;101378.25;;;19.70;73.43
78888;BME280;68276;49.326;8.690;2023-09-30T10:08:31;101381.41;;;19.67;68.74
78888;BME280;68276;49.326;8.690;2023-09-30T10:10:58;101382.63;;;19.71;69.41
78888;BME280;68276;49.326;8.690;2023-09-30T10:13:49;101384.13;;;19.22;69.76
78888;BME280;68276;49.326;8.690;2023-09-30T10:19:24;101379.81;;;19.02;71.16
78888;BME280;68276;49.326;8.690;2023-09-30T10:24:45;101366.22;;;19.46;66.39
78888;BME280;68276;49.326;8.690;2023-09-30T10:35:15;101358.19;;;19.89;64.12
78888;BME280;68276;49.326;8.690;2023-09-30T10:37:42;101349.22;;;19.82;63.44
78888;BME280;68276;49.326;8.690;2023-09-30T10:40:08;101355.13;;;19.79;64.11
78888;BME280;68276;49.326;8.690;2023-09-30T10:42:47;101348.09;;;20.14;62.12
78888;BME280;68276;49.326;8.690;2023-09-30T10:50:56;101338.84;;;19.66;63.55
78888;BME280;68276;49.326;8.690;2023-09-30T10:53:24;101339.16;;;19.82;62.68
78888;BME280;68276;49.326;8.690;2023-09-30T10:55:54;101338.03;;;20.39;61.33
78888;BME280;68276;49.326;8.690;2023-09-30T10:58:20;101348.81;;;20.52;59.99
78888;BME280;68276;49.326;8.690;2023-09-30T11:00:55;101341.56;;;20.64;59.24
78888;BME280;68276;49.326;8.690;2023-09-30T11:03:21;101339.75;;;20.58;60.56
78888;BME280;68276;49.326;8.690;2023-09-30T11:05:50;101341.63;;;20.58;60.67
78888;BME280;68276;49.326;8.690;2023-09-30T11:08:21;101331.59;;;20.33;61.34
78888;BME280;68276;49.326;8.690;2023-09-30T11:10:51;101330.88;;;20.20;62.22
78888;BME280;68276;49.326;8.690;2023-09-30T11:13:18;101331.47;;;20.46;60.56
78888;BME280;68276;49.326;8.690;2023-09-30T11:15:44;101328.91;;;20.52;60.69
78888;BME280;68276;49.326;8.690;2023-09-30T11:18:18;101337.75;;;20.83;58.92
78888;BME280;68276;49.326;8.690;2023-09-30T11:20:44;101339.28;;;20.97;58.81
78888;BME280;68276;49.326;8.690;2023-09-30T11:23:10;101333.06;;;20.90;59.43
78888;BME280;68276;49.326;8.690;2023-09-30T11:25:37;101327.97;;;20.94;58.43
78888;BME280;68276;49.326;8.690;2023-09-30T11:28:17;101325.13;;;21.07;58.22
78888;BME280;68276;49.326;8.690;2023-09-30T11:30:56;101324.88;;;21.08;57.80
78888;BME280;68276;49.326;8.690;2023-09-30T11:33:22;101334.44;;;20.81;57.23
78888;BME280;68276;49.326;8.690;2023-09-30T11:35:58;101332.47;;;20.70;56.83
78888;BME280;68276;49.326;8.690;2023-09-30T11:38:27;101331.25;;;20.66;57.23
78888;BME280;68276;49.326;8.690;2023-09-30T11:41:05;101336.69;;;20.66;57.40
78888;BME280;68276;49.326;8.690;2023-09-30T11:43:35;101334.28;;;20.58;57.60
78888;BME280;68276;49.326;8.690;2023-09-30T11:46:18;101339.59;;;20.89;56.37
78888;BME280;68276;49.326;8.690;2023-09-30T11:49:24;101328.75;;;21.19;54.86
78888;BME280;68276;49.326;8.690;2023-09-30T11:51:49;101330.09;;;21.28;54.59
78888;BME280;68276;49.326;8.690;2023-09-30T11:54:16;101324.88;;;21.08;55.16
78888;BME280;68276;49.326;8.690;2023-09-30T11:56:41;101323.94;;;21.14;55.13
78888;BME280;68276;49.326;8.690;2023-09-30T11:59:07;101327.75;;;21.13;55.52
78888;BME280;68276;49.326;8.690;2023-09-30T12:01:38;101330.44;;;21.02;55.39
78888;BME280;68276;49.326;8.690;2023-09-30T12:04:04;101327.31;;;21.46;55.51
78888;BME280;68276;49.326;8.690;2023-09-30T12:06:30;101329.53;;;21.37;54.53
78888;BME280;68276;49.326;8.690;2023-09-30T12:08:56;101318.94;;;21.71;54.15
78888;BME280;68276;49.326;8.690;2023-09-30T12:11:24;101328.75;;;21.78;54.04
78888;BME280;68276;49.326;8.690;2023-09-30T12:13:51;101327.13;;;21.59;53.71
78888;BME280;68276;49.326;8.690;2023-09-30T12:16:17;101326.03;;;21.60;53.99
78888;BME280;68276;49.326;8.690;2023-09-30T12:18:42;101320.03;;;21.70;53.20
78888;BME280;68276;49.326;8.690;2023-09-30T12:21:09;101311.78;;;22.45;52.03
78888;BME280;68276;49.326;8.690;2023-09-30T12:23:36;101314.41;;;22.63;50.54
78888;BME280;68276;49.326;8.690;2023-09-30T12:26:01;101316.41;;;21.99;51.92
78888;BME280;68276;49.326;8.690;2023-09-30T12:28:30;101326.03;;;21.78;52.56
78888;BME280;68276;49.326;8.690;2023-09-30T12:30:57;101315.81;;;21.85;52.11
78888;BME280;68276;49.326;8.690;2023-09-30T12:33:22;101319.16;;;21.99;51.63
78888;BME280;68276;49.326;8.690;2023-09-30T12:35:48;101316.47;;;21.39;52.85
78888;BME280;68276;49.326;8.690;2023-09-30T12:38:14;101308.81;;;22.01;51.41
78888;BME280;68276;49.326;8.690;2023-09-30T12:40:41;101307.25;;;22.05;52.11
78888;BME280;68276;49.326;8.690;2023-09-30T12:43:06;101307.16;;;22.23;51.61
78888;BME280;68276;49.326;8.690;2023-09-30T12:45:32;101299.28;;;22.03;51.49
78888;BME280;68276;49.326;8.690;2023-09-30T12:47:57;101292.03;;;21.97;51.49
78888;BME280;68276;49.326;8.690;2023-09-30T12:50:23;101280.50;;;22.30;50.68
78888;BME280;68276;49.326;8.690;2023-09-30T12:52:48;101283.78;;;22.78;49.64
78888;BME280;68276;49.326;8.690;2023-09-30T12:55:17;101276.13;;;23.48;48.03
78888;BME280;68276;49.326;8.690;2023-09-30T12:57:44;101268.75;;;23.81;46.46
78888;BME280;68276;49.326;8.690;2023-09-30T13:00:09;101269.31;;;23.50;47.11
78888;BME280;68276;49.326;8.690;2023-09-30T13:02:35;101279.97;;;23.97;45.80